sensor_id;sensor_type;location;lat;lon;timestamp;temperature;humidity
5554;DHT22;2800;49.528;8.666;2023-06-04T00:01:09;17.20;99.90
5554;DHT22;2800;49.528;8.666;2023-06-04T00:03:35;17.20;99.90
5554;DHT22;2800;49.528;8.666;2023-06-04T00:06:00;17.20;99.90
5554;DHT22;2800;49.528;8.666;2023-06-04T00:08:26;17.10;99.90
5554;DHT22;2800;49.528;8.666;2023-06-04T00:10:51;17.00;99.90
5554;DHT22;2800;49.528;8.666;2023-06-04T00:13:17;17.00;99.90
5554;DHT22;2800;49.528;8.666;2023-06-04T00:15:43;17.00;99.90
5554;DHT22;2800;49.528;8.666;2023-06-04T00:18:08;17.00;99.90
5554;DHT22;2800;49.528;8.666;2023-06-04T00:20:36;16.90;99.90
5554;DHT22;2800;49.528;8.666;2023-06-04T00:23:02;16.90;99.90
5554;DHT22;2800;49.528;8.666;2023-06-04T00:25:27;16.90;99.90
5554;DHT22;2800;49.528;8.666;2023-06-04T00:27:53;16.90;99.90
5554;DHT22;2800;49.528;8.666;2023-06-04T00:30:18;16.90;99.90
5554;DHT22;2800;49.528;8.666;2023-06-04T00:32:44;16.90;99.90
5554;DHT22;2800;49.528;8.666;2023-06-04T00:35:09;16.90;99.90
5554;DHT22;2800;49.528;8.666;2023-06-04T00:37:35;16.90;99.90
5554;DHT22;2800;49.528;8.666;2023-06-04T00:40:01;16.90;99.90
5554;DHT22;2800;49.528;8.666;2023-06-04T00:42:26;16.90;99.90
5554;DHT22;2800;49.528;8.666;2023-06-04T00:44:52;16.80;99.90
5554;DHT22;2800;49.528;8.666;2023-06-04T00:47:18;16.80;99.90
5554;DHT22;2800;49.528;8.666;2023-06-04T00:49:45;16.80;99.90
5554;DHT22;2800;49.528;8.666;2023-06-04T00:52:13;16.80;99.90
5554;DHT22;2800;49.528;8.666;2023-06-04T00:54:39;16.80;99.90
5554;DHT22;2800;49.528;8.666;2023-06-04T00:57:05;16.80;99.90
5554;DHT22;2800;49.528;8.666;2023-06-04T00:59:33;16.80;99.90
5554;DHT22;2800;49.528;8.666;2023-06-04T01:06:58;16.70;99.90
5554;DHT22;2800;49.528;8.666;2023-06-04T01:09:26;16.60;99.90
5554;DHT22;2800;49.528;8.666;2023-06-04T01:11:53;16.60;99.90
5554;DHT22;2800;49.528;8.666;2023-06-04T01:14:18;16.60;99.90
5554;DHT22;2800;49.528;8.666;2023-06-04T01:17:13;16.50;99.90
5554;DHT22;2800;49.528;8.666;2023-06-04T01:22:42;16.50;99.90
5554;DHT22;2800;49.528;8.666;2023-06-04T01:25:20;16.50;99.90
5554;DHT22;2800;49.528;8.666;2023-06-04T01:27:50;16.40;99.90
5554;DHT22;2800;49.528;8.666;2023-06-04T01:30:21;16.40;99.90
5554;DHT22;2800;49.528;8.666;2023-06-04T01:32:48;16.40;99.90
5554;DHT22;2800;49.528;8.666;2023-06-04T01:35:14;16.40;99.90
5554;DHT22;2800;49.528;8.666;2023-06-04T01:37:40;16.40;99.90
5554;DHT22;2800;49.528;8.666;2023-06-04T01:40:06;16.50;99.90
5554;DHT22;2800;49.528;8.666;2023-06-04T01:42:34;16.50;99.90
5554;DHT22;2800;49.528;8.666;2023-06-04T01:44:59;16.50;99.90
5554;DHT22;2800;49.528;8.666;2023-06-04T01:47:25;16.50;99.90
5554;DHT22;2800;49.528;8.666;2023-06-04T01:49:50;16.50;99.90
5554;DHT22;2800;49.528;8.666;2023-06-04T01:52:16;16.60;99.90
5554;DHT22;2800;49.528;8.666;2023-06-04T01:54:41;16.50;99.90
5554;DHT22;2800;49.528;8.666;2023-06-04T01:57:08;16.50;99.90
5554;DHT22;2800;49.528;8.666;2023-06-04T01:59:35;16.50;99.90
5554;DHT22;2800;49.528;8.666;2023-06-04T02:02:02;16.50;99.90
5554;DHT22;2800;49.528;8.666;2023-06-04T02:04:27;16.40;99.90
5554;DHT22;2800;49.528;8.666;2023-06-04T02:06:53;16.40;99.90
5554;DHT22;2800;49.528;8.666;2023-06-04T02:09:18;16.40;99.90
5554;DHT22;2800;49.528;8.666;2023-06-04T02:11:44;16.30;99.90
5554;DHT22;2800;49.528;8.666;2023-06-04T02:14:09;16.30;99.90
5554;DHT22;2800;49.528;8.666;2023-06-04T02:16:35;16.20;99.90
5554;DHT22;2800;49.528;8.666;2023-06-04T02:19:01;16.10;99.90
5554;DHT22;2800;49.528;8.666;2023-06-04T02:21:26;16.10;99.90
5554;DHT22;2800;49.528;8.666;2023-06-04T02:23:52;16.00;99.90
5554;DHT22;2800;49.528;8.666;2023-06-04T02:26:17;16.00;99.90
5554;DHT22;2800;49.528;8.666;2023-06-04T02:28:43;16.00;99.90
5554;DHT22;2800;49.528;8.666;2023-06-04T02:31:08;15.90;99.90
5554;DHT22;2800;49.528;8.666;2023-06-04T02:33:34;15.90;99.90
5554;DHT22;2800;49.528;8.666;2023-06-04T02:36:00;15.90;99.90
5554;DHT22;2800;49.528;8.666;2023-06-04T02:38:26;15.80;99.90
5554;DHT22;2800;49.528;8.666;2023-06-04T02:40:51;15.80;99.90
5554;DHT22;2800;49.528;8.666;2023-06-04T02:43:17;15.80;99.90
5554;DHT22;2800;49.528;8.666;2023-06-04T02:45:42;15.70;99.90
5554;DHT22;2800;49.528;8.666;2023-06-04T02:48:08;15.70;99.90
5554;DHT22;2800;49.528;8.666;2023-06-04T02:50:33;15.60;99.90
5554;DHT22;2800;49.528;8.666;2023-06-04T02:52:59;15.50;99.90
5554;DHT22;2800;49.528;8.666;2023-06-04T02:55:25;15.50;99.90
5554;DHT22;2800;49.528;8.666;2023-06-04T02:57:50;15.50;99.90
5554;DHT22;2800;49.528;8.666;2023-06-04T03:00:17;15.40;99.90
5554;DHT22;2800;49.528;8.666;2023-06-04T03:02:44;15.40;99.90
5554;DHT22;2800;49.528;8.666;2023-06-04T03:05:12;15.40;99.90
5554;DHT22;2800;49.528;8.666;2023-06-04T03:07:38;15.40;99.90
5554;DHT22;2800;49.528;8.666;2023-06-04T03:10:04;15.40;99.90
5554;DHT22;2800;49.528;8.666;2023-06-04T03:12:30;15.40;99.90
5554;DHT22;2800;49.528;8.666;2023-06-04T03:14:55;15.40;99.90
5554;DHT22;2800;49.528;8.666;2023-06-04T03:17:21;15.30;99.90
5554;DHT22;2800;49.528;8.666;2023-06-04T03:19:47;15.20;99.90
5554;DHT22;2800;49.528;8.666;2023-06-04T03:22:13;15.20;99.90
5554;DHT22;2800;49.528;8.666;2023-06-04T03:24:40;15.20;99.90
5554;DHT22;2800;49.528;8.666;2023-06-04T03:27:07;15.20;99.90
5554;DHT22;2800;49.528;8.666;2023-06-04T03:29:34;15.30;99.90
5554;DHT22;2800;49.528;8.666;2023-06-04T03:32:00;15.20;99.90
5554;DHT22;2800;49.528;8.666;2023-06-04T03:34:26;15.30;99.90
5554;DHT22;2800;49.528;8.666;2023-06-04T03:36:55;15.20;99.90
5554;DHT22;2800;49.528;8.666;2023-06-04T03:39:21;15.20;99.90
5554;DHT22;2800;49.528;8.666;2023-06-04T03:41:47;15.20;99.90
5554;DHT22;2800;49.528;8.666;2023-06-04T03:44:20;15.10;99.90
5554;DHT22;2800;49.528;8.666;2023-06-04T03:46:45;15.20;99.90
5554;DHT22;2800;49.528;8.666;2023-06-04T03:49:12;15.10;99.90
5554;DHT22;2800;49.528;8.666;2023-06-04T03:51:38;15.00;99.90
5554;DHT22;2800;49.528;8.666;2023-06-04T03:54:04;15.00;99.90
5554;DHT22;2800;49.528;8.666;2023-06-04T03:56:30;15.00;99.90
5554;DHT22;2800;49.528;8.666;2023-06-04T03:58:55;15.00;99.90
5554;DHT22;2800;49.528;8.666;2023-06-04T04:01:21;15.00;99.90
5554;DHT22;2800;49.528;8.666;2023-06-04T04:03:48;15.10;99.90
5554;DHT22;2800;49.528;8.666;2023-06-04T04:06:15;15.10;99.90
5554;DHT22;2800;49.528;8.666;2023-06-04T04:08:41;15.10;99.90
5554;DHT22;2800;49.528;8.666;2023-06-04T04:11:12;15.10;99.90
5554;DHT22;2800;49.528;8.666;2023-06-04T04:13:37;15.20;99.90
5554;DHT22;2800;49.528;8.666;2023-06-04T04:16:03;15.10;99.90
5554;DHT22;2800;49.528;8.666;2023-06-04T04:18:33;15.10;99.90
5554;DHT22;2800;49.528;8.666;2023-06-04T04:20:59;15.10;99.90
5554;DHT22;2800;49.528;8.666;2023-06-04T04:23:24;15.00;99.90
5554;DHT22;2800;49.528;8.666;2023-06-04T04:25:50;15.10;99.90
5554;DHT22;2800;49.528;8.666;2023-06-04T04:28:16;15.20;99.90
5554;DHT22;2800;49.528;8.666;2023-06-04T04:30:43;15.10;99.90
5554;DHT22;2800;49.528;8.666;2023-06-04T04:33:09;15.10;99.90
5554;DHT22;2800;49.528;8.666;2023-06-04T04:35:36;15.20;99.90
5554;DHT22;2800;49.528;8.666;2023-06-04T04:38:02;15.20;99.90
5554;DHT22;2800;49.528;8.666;2023-06-04T04:40:29;15.20;99.90
5554;DHT22;2800;49.528;8.666;2023-06-04T04:42:55;15.20;99.90
5554;DHT22;2800;49.528;8.666;2023-06-04T04:45:20;15.30;99.90
5554;DHT22;2800;49.528;8.666;2023-06-04T04:47:46;15.20;99.90
5554;DHT22;2800;49.528;8.666;2023-06-04T04:50:12;15.20;99.90
5554;DHT22;2800;49.528;8.666;2023-06-04T04:52:38;15.20;99.90
5554;DHT22;2800;49.528;8.666;2023-06-04T04:55:04;15.20;99.90
5554;DHT22;2800;49.528;8.666;2023-06-04T04:57:30;15.20;99.90
5554;DHT22;2800;49.528;8.666;2023-06-04T04:59:56;15.10;99.90
5554;DHT22;2800;49.528;8.666;2023-06-04T05:02:21;15.10;99.90
5554;DHT22;2800;49.528;8.666;2023-06-04T05:04:47;15.10;99.90
5554;DHT22;2800;49.528;8.666;2023-06-04T05:07:12;15.10;99.90
5554;DHT22;2800;49.528;8.666;2023-06-04T05:09:40;15.10;99.90
5554;DHT22;2800;49.528;8.666;2023-06-04T05:12:05;15.00;99.90
5554;DHT22;2800;49.528;8.666;2023-06-04T05:14:32;15.10;99.90
5554;DHT22;2800;49.528;8.666;2023-06-04T05:16:58;15.20;99.90
5554;DHT22;2800;49.528;8.666;2023-06-04T05:19:23;15.20;99.90
5554;DHT22;2800;49.528;8.666;2023-06-04T05:21:50;15.30;99.90
5554;DHT22;2800;49.528;8.666;2023-06-04T05:24:16;15.30;99.90
5554;DHT22;2800;49.528;8.666;2023-06-04T05:26:41;15.40;99.90
5554;DHT22;2800;49.528;8.666;2023-06-04T05:29:07;15.40;99.90
5554;DHT22;2800;49.528;8.666;2023-06-04T05:31:33;15.40;99.90
5554;DHT22;2800;49.528;8.666;2023-06-04T05:34:00;15.50;99.90
5554;DHT22;2800;49.528;8.666;2023-06-04T05:36:30;15.60;99.90
5554;DHT22;2800;49.528;8.666;2023-06-04T05:38:56;15.70;99.90
5554;DHT22;2800;49.528;8.666;2023-06-04T05:41:25;15.70;99.90
5554;DHT22;2800;49.528;8.666;2023-06-04T05:43:51;15.80;99.90
5554;DHT22;2800;49.528;8.666;2023-06-04T05:46:17;15.90;99.90
5554;DHT22;2800;49.528;8.666;2023-06-04T05:48:42;16.00;99.90
5554;DHT22;2800;49.528;8.666;2023-06-04T05:51:08;16.00;99.90
5554;DHT22;2800;49.528;8.666;2023-06-04T05:53:33;16.00;99.90
5554;DHT22;2800;49.528;8.666;2023-06-04T05:55:59;16.10;99.90
5554;DHT22;2800;49.528;8.666;2023-06-04T05:58:24;16.20;99.90
5554;DHT22;2800;49.528;8.666;2023-06-04T06:00:50;16.20;99.90
5554;DHT22;2800;49.528;8.666;2023-06-04T06:03:16;16.30;99.90
5554;DHT22;2800;49.528;8.666;2023-06-04T06:05:42;16.50;99.90
5554;DHT22;2800;49.528;8.666;2023-06-04T06:08:08;16.60;99.90
5554;DHT22;2800;49.528;8.666;2023-06-04T06:10:34;16.70;99.90
5554;DHT22;2800;49.528;8.666;2023-06-04T06:13:00;16.80;99.90
5554;DHT22;2800;49.528;8.666;2023-06-04T06:15:28;16.90;99.90
5554;DHT22;2800;49.528;8.666;2023-06-04T06:17:54;17.00;99.90
5554;DHT22;2800;49.528;8.666;2023-06-04T06:20:20;17.10;99.90
5554;DHT22;2800;49.528;8.666;2023-06-04T06:22:47;17.30;99.90
5554;DHT22;2800;49.528;8.666;2023-06-04T06:25:13;17.40;99.90
5554;DHT22;2800;49.528;8.666;2023-06-04T06:27:41;17.50;99.90
5554;DHT22;2800;49.528;8.666;2023-06-04T06:30:07;17.70;99.90
5554;DHT22;2800;49.528;8.666;2023-06-04T06:32:33;17.80;99.90
5554;DHT22;2800;49.528;8.666;2023-06-04T06:34:59;18.00;99.90
5554;DHT22;2800;49.528;8.666;2023-06-04T06:37:24;18.10;99.90
5554;DHT22;2800;49.528;8.666;2023-06-04T06:39:50;18.30;99.90
5554;DHT22;2800;49.528;8.666;2023-06-04T06:42:15;18.50;99.90
5554;DHT22;2800;49.528;8.666;2023-06-04T06:44:44;18.80;99.90
5554;DHT22;2800;49.528;8.666;2023-06-04T06:47:09;19.30;99.90
5554;DHT22;2800;49.528;8.666;2023-06-04T06:49:39;19.70;99.90
5554;DHT22;2800;49.528;8.666;2023-06-04T06:52:04;20.00;99.90
5554;DHT22;2800;49.528;8.666;2023-06-04T06:54:30;20.40;99.90
5554;DHT22;2800;49.528;8.666;2023-06-04T06:56:55;20.70;99.90
5554;DHT22;2800;49.528;8.666;2023-06-04T06:59:21;20.90;99.90
5554;DHT22;2800;49.528;8.666;2023-06-04T07:01:47;20.80;99.90
5554;DHT22;2800;49.528;8.666;2023-06-04T07:04:12;20.90;99.90
5554;DHT22;2800;49.528;8.666;2023-06-04T07:06:38;20.90;99.90
5554;DHT22;2800;49.528;8.666;2023-06-04T07:09:03;21.00;99.90
5554;DHT22;2800;49.528;8.666;2023-06-04T07:11:31;20.90;99.90
5554;DHT22;2800;49.528;8.666;2023-06-04T07:13:56;21.10;99.90
5554;DHT22;2800;49.528;8.666;2023-06-04T07:16:22;21.40;99.90
5554;DHT22;2800;49.528;8.666;2023-06-04T07:18:48;21.40;99.90
5554;DHT22;2800;49.528;8.666;2023-06-04T07:21:15;21.40;99.90
5554;DHT22;2800;49.528;8.666;2023-06-04T07:23:41;21.80;99.90
5554;DHT22;2800;49.528;8.666;2023-06-04T07:26:06;21.80;99.90
5554;DHT22;2800;49.528;8.666;2023-06-04T07:28:32;22.00;99.90
5554;DHT22;2800;49.528;8.666;2023-06-04T07:30:57;22.20;99.90
5554;DHT22;2800;49.528;8.666;2023-06-04T07:33:24;22.10;99.90
5554;DHT22;2800;49.528;8.666;2023-06-04T07:35:49;22.10;99.90
5554;DHT22;2800;49.528;8.666;2023-06-04T07:38:15;22.50;99.90
5554;DHT22;2800;49.528;8.666;2023-06-04T07:40:41;22.70;99.90
5554;DHT22;2800;49.528;8.666;2023-06-04T07:43:06;22.80;99.90
5554;DHT22;2800;49.528;8.666;2023-06-04T07:45:32;22.70;99.90
5554;DHT22;2800;49.528;8.666;2023-06-04T07:47:57;22.90;99.90
5554;DHT22;2800;49.528;8.666;2023-06-04T07:50:24;23.30;99.90
5554;DHT22;2800;49.528;8.666;2023-06-04T07:52:50;23.30;99.90
5554;DHT22;2800;49.528;8.666;2023-06-04T07:55:15;23.30;99.90
5554;DHT22;2800;49.528;8.666;2023-06-04T07:57:41;23.10;99.90
5554;DHT22;2800;49.528;8.666;2023-06-04T08:00:07;23.50;99.90
5554;DHT22;2800;49.528;8.666;2023-06-04T08:02:33;23.70;99.90
5554;DHT22;2800;49.528;8.666;2023-06-04T08:04:59;23.60;99.90
5554;DHT22;2800;49.528;8.666;2023-06-04T08:07:25;23.00;99.90
5554;DHT22;2800;49.528;8.666;2023-06-04T08:09:51;21.60;99.90
5554;DHT22;2800;49.528;8.666;2023-06-04T08:12:17;22.70;99.90
5554;DHT22;2800;49.528;8.666;2023-06-04T08:14:42;23.00;99.90
5554;DHT22;2800;49.528;8.666;2023-06-04T08:17:08;22.80;99.90
5554;DHT22;2800;49.528;8.666;2023-06-04T08:19:34;23.50;99.90
5554;DHT22;2800;49.528;8.666;2023-06-04T08:21:59;23.80;99.90
5554;DHT22;2800;49.528;8.666;2023-06-04T08:24:25;23.90;99.90
5554;DHT22;2800;49.528;8.666;2023-06-04T08:26:51;23.90;99.90
5554;DHT22;2800;49.528;8.666;2023-06-04T08:29:17;24.10;99.90
5554;DHT22;2800;49.528;8.666;2023-06-04T08:31:42;23.60;99.90
5554;DHT22;2800;49.528;8.666;2023-06-04T08:34:08;23.80;99.90
5554;DHT22;2800;49.528;8.666;2023-06-04T08:36:33;23.80;99.90
5554;DHT22;2800;49.528;8.666;2023-06-04T08:38:59;23.90;99.90
5554;DHT22;2800;49.528;8.666;2023-06-04T08:41:38;23.30;99.90
5554;DHT22;2800;49.528;8.666;2023-06-04T08:44:06;23.50;99.90
5554;DHT22;2800;49.528;8.666;2023-06-04T08:46:32;23.40;99.90
5554;DHT22;2800;49.528;8.666;2023-06-04T08:49:02;24.20;99.90
5554;DHT22;2800;49.528;8.666;2023-06-04T08:51:29;24.50;99.90
5554;DHT22;2800;49.528;8.666;2023-06-04T08:53:58;24.60;99.90
5554;DHT22;2800;49.528;8.666;2023-06-04T08:56:24;24.60;99.90
5554;DHT22;2800;49.528;8.666;2023-06-04T08:58:51;23.90;99.90
5554;DHT22;2800;49.528;8.666;2023-06-04T09:01:17;24.40;99.90
5554;DHT22;2800;49.528;8.666;2023-06-04T09:03:43;24.10;99.90
5554;DHT22;2800;49.528;8.666;2023-06-04T09:06:09;24.90;99.90
5554;DHT22;2800;49.528;8.666;2023-06-04T09:08:37;25.60;99.90
5554;DHT22;2800;49.528;8.666;2023-06-04T09:11:05;25.50;99.90
5554;DHT22;2800;49.528;8.666;2023-06-04T09:13:33;26.10;99.90
5554;DHT22;2800;49.528;8.666;2023-06-04T09:16:03;26.80;99.90
5554;DHT22;2800;49.528;8.666;2023-06-04T09:18:30;25.80;99.90
5554;DHT22;2800;49.528;8.666;2023-06-04T09:21:04;26.00;99.90
5554;DHT22;2800;49.528;8.666;2023-06-04T09:23:46;25.80;99.90
5554;DHT22;2800;49.528;8.666;2023-06-04T09:26:12;26.00;99.90
5554;DHT22;2800;49.528;8.666;2023-06-04T09:28:42;26.90;99.90
5554;DHT22;2800;49.528;8.666;2023-06-04T09:31:15;26.90;99.90
5554;DHT22;2800;49.528;8.666;2023-06-04T09:33:50;27.50;99.90
5554;DHT22;2800;49.528;8.666;2023-06-04T09:36:16;27.80;99.90
5554;DHT22;2800;49.528;8.666;2023-06-04T09:38:42;28.30;99.90
5554;DHT22;2800;49.528;8.666;2023-06-04T09:41:15;28.20;99.90
5554;DHT22;2800;49.528;8.666;2023-06-04T09:43:41;27.90;99.90
5554;DHT22;2800;49.528;8.666;2023-06-04T09:46:14;27.30;99.90
5554;DHT22;2800;49.528;8.666;2023-06-04T09:48:41;27.70;99.90
5554;DHT22;2800;49.528;8.666;2023-06-04T09:51:14;28.00;99.90
5554;DHT22;2800;49.528;8.666;2023-06-04T09:53:57;28.40;99.90
5554;DHT22;2800;49.528;8.666;2023-06-04T09:56:23;28.40;99.90
5554;DHT22;2800;49.528;8.666;2023-06-04T09:58:49;27.90;99.90
5554;DHT22;2800;49.528;8.666;2023-06-04T10:01:19;27.20;99.90
5554;DHT22;2800;49.528;8.666;2023-06-04T10:03:47;27.20;99.90
5554;DHT22;2800;49.528;8.666;2023-06-04T10:06:15;27.70;99.90
5554;DHT22;2800;49.528;8.666;2023-06-04T10:08:42;27.80;99.90
5554;DHT22;2800;49.528;8.666;2023-06-04T10:11:09;27.40;99.90
5554;DHT22;2800;49.528;8.666;2023-06-04T10:16:16;28.90;99.90
5554;DHT22;2800;49.528;8.666;2023-06-04T10:18:43;27.90;99.90
5554;DHT22;2800;49.528;8.666;2023-06-04T10:21:10;28.30;99.90
5554;DHT22;2800;49.528;8.666;2023-06-04T10:23:39;29.00;99.90
5554;DHT22;2800;49.528;8.666;2023-06-04T10:26:04;29.30;99.90
5554;DHT22;2800;49.528;8.666;2023-06-04T10:28:30;29.90;99.90
5554;DHT22;2800;49.528;8.666;2023-06-04T10:30:56;30.40;99.90
5554;DHT22;2800;49.528;8.666;2023-06-04T10:33:21;30.30;99.90
5554;DHT22;2800;49.528;8.666;2023-06-04T10:35:53;30.70;99.90
5554;DHT22;2800;49.528;8.666;2023-06-04T10:38:19;30.70;99.90
5554;DHT22;2800;49.528;8.666;2023-06-04T10:40:47;31.10;99.90
5554;DHT22;2800;49.528;8.666;2023-06-04T10:43:14;30.50;99.90
5554;DHT22;2800;49.528;8.666;2023-06-04T10:45:41;29.70;99.90
5554;DHT22;2800;49.528;8.666;2023-06-04T10:48:09;29.40;99.90
5554;DHT22;2800;49.528;8.666;2023-06-04T10:50:47;28.60;99.90
5554;DHT22;2800;49.528;8.666;2023-06-04T10:53:13;28.40;99.90
5554;DHT22;2800;49.528;8.666;2023-06-04T10:55:46;27.80;99.90
5554;DHT22;2800;49.528;8.666;2023-06-04T10:58:12;27.80;99.90
5554;DHT22;2800;49.528;8.666;2023-06-04T11:00:39;28.00;99.90
5554;DHT22;2800;49.528;8.666;2023-06-04T11:03:06;28.70;99.90
5554;DHT22;2800;49.528;8.666;2023-06-04T11:05:36;29.30;99.90
5554;DHT22;2800;49.528;8.666;2023-06-04T11:08:04;29.20;99.90
5554;DHT22;2800;49.528;8.666;2023-06-04T11:10:32;29.70;99.90
5554;DHT22;2800;49.528;8.666;2023-06-04T11:12:59;30.00;99.90
5554;DHT22;2800;49.528;8.666;2023-06-04T11:15:24;30.30;99.90
5554;DHT22;2800;49.528;8.666;2023-06-04T11:17:55;30.00;99.90
5554;DHT22;2800;49.528;8.666;2023-06-04T11:20:22;30.60;99.90
5554;DHT22;2800;49.528;8.666;2023-06-04T11:22:58;30.90;99.90
5554;DHT22;2800;49.528;8.666;2023-06-04T11:25:30;30.70;99.90
5554;DHT22;2800;49.528;8.666;2023-06-04T11:27:59;30.80;99.90
5554;DHT22;2800;49.528;8.666;2023-06-04T11:30:25;30.90;99.90
5554;DHT22;2800;49.528;8.666;2023-06-04T11:33:03;31.20;99.90
5554;DHT22;2800;49.528;8.666;2023-06-04T11:35:29;30.40;99.90
5554;DHT22;2800;49.528;8.666;2023-06-04T11:37:56;30.10;99.90
5554;DHT22;2800;49.528;8.666;2023-06-04T11:40:22;30.30;99.90
5554;DHT22;2800;49.528;8.666;2023-06-04T11:42:48;30.10;99.90
5554;DHT22;2800;49.528;8.666;2023-06-04T11:45:19;30.70;99.90
5554;DHT22;2800;49.528;8.666;2023-06-04T11:47:54;31.10;99.90
5554;DHT22;2800;49.528;8.666;2023-06-04T11:50:21;31.30;99.90
5554;DHT22;2800;49.528;8.666;2023-06-04T11:52:48;31.60;99.90
5554;DHT22;2800;49.528;8.666;2023-06-04T11:55:15;31.50;99.90
5554;DHT22;2800;49.528;8.666;2023-06-04T11:57:43;31.40;99.90
5554;DHT22;2800;49.528;8.666;2023-06-04T12:00:09;31.20;99.90
5554;DHT22;2800;49.528;8.666;2023-06-04T12:02:47;30.60;99.90
5554;DHT22;2800;49.528;8.666;2023-06-04T12:05:14;30.90;99.90
5554;DHT22;2800;49.528;8.666;2023-06-04T12:07:40;31.10;99.90
5554;DHT22;2800;49.528;8.666;2023-06-04T12:10:07;31.50;99.90
5554;DHT22;2800;49.528;8.666;2023-06-04T12:12:34;32.10;99.90
5554;DHT22;2800;49.528;8.666;2023-06-04T12:15:00;32.40;99.90
5554;DHT22;2800;49.528;8.666;2023-06-04T12:17:26;32.70;99.90
5554;DHT22;2800;49.528;8.666;2023-06-04T12:19:52;32.10;99.90
5554;DHT22;2800;49.528;8.666;2023-06-04T12:22:18;32.90;99.90
5554;DHT22;2800;49.528;8.666;2023-06-04T12:24:51;32.70;99.90
5554;DHT22;2800;49.528;8.666;2023-06-04T12:27:22;32.60;99.90
5554;DHT22;2800;49.528;8.666;2023-06-04T12:30:04;32.70;99.90
5554;DHT22;2800;49.528;8.666;2023-06-04T12:32:34;32.80;99.90
5554;DHT22;2800;49.528;8.666;2023-06-04T12:35:00;32.70;99.90
5554;DHT22;2800;49.528;8.666;2023-06-04T12:37:26;32.60;99.90
5554;DHT22;2800;49.528;8.666;2023-06-04T12:39:53;33.00;99.90
5554;DHT22;2800;49.528;8.666;2023-06-04T12:42:19;33.50;99.90
5554;DHT22;2800;49.528;8.666;2023-06-04T12:44:45;33.90;99.90
5554;DHT22;2800;49.528;8.666;2023-06-04T12:47:11;33.80;99.90
5554;DHT22;2800;49.528;8.666;2023-06-04T12:49:37;33.10;99.90
5554;DHT22;2800;49.528;8.666;2023-06-04T12:52:03;32.80;99.90
5554;DHT22;2800;49.528;8.666;2023-06-04T12:54:29;32.50;99.90
5554;DHT22;2800;49.528;8.666;2023-06-04T12:56:55;33.40;99.90
5554;DHT22;2800;49.528;8.666;2023-06-04T12:59:22;33.40;99.90
5554;DHT22;2800;49.528;8.666;2023-06-04T13:01:48;33.40;99.90
5554;DHT22;2800;49.528;8.666;2023-06-04T13:04:13;33.10;99.90
5554;DHT22;2800;49.528;8.666;2023-06-04T13:06:39;33.10;99.90
5554;DHT22;2800;49.528;8.666;2023-06-04T13:09:05;32.40;99.90
5554;DHT22;2800;49.528;8.666;2023-06-04T13:11:43;33.40;99.90
5554;DHT22;2800;49.528;8.666;2023-06-04T13:14:10;33.50;99.90
5554;DHT22;2800;49.528;8.666;2023-06-04T13:16:37;33.70;99.90
5554;DHT22;2800;49.528;8.666;2023-06-04T13:19:02;33.60;99.90
5554;DHT22;2800;49.528;8.666;2023-06-04T13:21:29;33.40;99.90
5554;DHT22;2800;49.528;8.666;2023-06-04T13:23:54;32.80;99.90
5554;DHT22;2800;49.528;8.666;2023-06-04T13:26:22;33.30;99.90
5554;DHT22;2800;49.528;8.666;2023-06-04T13:28:47;33.50;99.90
5554;DHT22;2800;49.528;8.666;2023-06-04T13:31:13;33.20;99.90
5554;DHT22;2800;49.528;8.666;2023-06-04T13:33:39;33.00;99.90
5554;DHT22;2800;49.528;8.666;2023-06-04T13:36:05;33.20;99.90
5554;DHT22;2800;49.528;8.666;2023-06-04T13:38:31;33.10;99.90
5554;DHT22;2800;49.528;8.666;2023-06-04T13:40:57;33.50;99.90
5554;DHT22;2800;49.528;8.666;2023-06-04T13:43:22;33.80;99.90
5554;DHT22;2800;49.528;8.666;2023-06-04T13:45:48;34.50;99.90
5554;DHT22;2800;49.528;8.666;2023-06-04T13:48:14;33.70;99.90
5554;DHT22;2800;49.528;8.666;2023-06-04T13:50:41;33.60;99.90
5554;DHT22;2800;49.528;8.666;2023-06-04T13:53:08;33.80;99.90
5554;DHT22;2800;49.528;8.666;2023-06-04T13:55:33;33.20;99.90
5554;DHT22;2800;49.528;8.666;2023-06-04T13:57:59;32.30;99.90
5554;DHT22;2800;49.528;8.666;2023-06-04T14:00:24;33.40;99.90
5554;DHT22;2800;49.528;8.666;2023-06-04T14:02:50;33.10;99.90
5554;DHT22;2800;49.528;8.666;2023-06-04T14:05:16;33.40;99.90
5554;DHT22;2800;49.528;8.666;2023-06-04T14:07:42;33.20;99.90
5554;DHT22;2800;49.528;8.666;2023-06-04T14:10:09;33.60;99.90
5554;DHT22;2800;49.528;8.666;2023-06-04T14:12:35;33.20;99.90
5554;DHT22;2800;49.528;8.666;2023-06-04T14:15:02;33.80;99.90
5554;DHT22;2800;49.528;8.666;2023-06-04T14:17:27;34.30;99.90
5554;DHT22;2800;49.528;8.666;2023-06-04T14:19:53;34.00;99.90
5554;DHT22;2800;49.528;8.666;2023-06-04T14:22:18;33.80;99.90
5554;DHT22;2800;49.528;8.666;2023-06-04T14:24:44;33.40;99.90
5554;DHT22;2800;49.528;8.666;2023-06-04T14:27:09;31.80;99.90
5554;DHT22;2800;49.528;8.666;2023-06-04T14:29:36;32.10;99.90
5554;DHT22;2800;49.528;8.666;2023-06-04T14:32:02;32.40;99.90
5554;DHT22;2800;49.528;8.666;2023-06-04T14:34:28;30.50;99.90
5554;DHT22;2800;49.528;8.666;2023-06-04T14:36:54;29.50;99.90
5554;DHT22;2800;49.528;8.666;2023-06-04T14:39:19;29.00;99.90
5554;DHT22;2800;49.528;8.666;2023-06-04T14:41:45;29.00;99.90
5554;DHT22;2800;49.528;8.666;2023-06-04T14:44:10;29.10;99.90
5554;DHT22;2800;49.528;8.666;2023-06-04T14:46:36;29.10;99.90
5554;DHT22;2800;49.528;8.666;2023-06-04T14:49:01;29.00;99.90
5554;DHT22;2800;49.528;8.666;2023-06-04T14:51:27;29.20;99.90
5554;DHT22;2800;49.528;8.666;2023-06-04T14:53:52;29.60;99.90
5554;DHT22;2800;49.528;8.666;2023-06-04T14:56:18;30.10;99.90
5554;DHT22;2800;49.528;8.666;2023-06-04T14:58:43;30.10;99.90
5554;DHT22;2800;49.528;8.666;2023-06-04T15:01:09;30.40;99.90
5554;DHT22;2800;49.528;8.666;2023-06-04T15:03:38;30.50;99.90
5554;DHT22;2800;49.528;8.666;2023-06-04T15:06:03;30.30;99.90
5554;DHT22;2800;49.528;8.666;2023-06-04T15:08:29;30.10;99.90
5554;DHT22;2800;49.528;8.666;2023-06-04T15:10:54;30.20;99.90
5554;DHT22;2800;49.528;8.666;2023-06-04T15:13:20;30.00;99.90
5554;DHT22;2800;49.528;8.666;2023-06-04T15:15:45;30.00;99.90
5554;DHT22;2800;49.528;8.666;2023-06-04T15:18:11;29.30;99.90
5554;DHT22;2800;49.528;8.666;2023-06-04T15:20:36;28.90;99.90
5554;DHT22;2800;49.528;8.666;2023-06-04T15:23:02;29.00;99.90
5554;DHT22;2800;49.528;8.666;2023-06-04T15:25:27;29.30;99.90
5554;DHT22;2800;49.528;8.666;2023-06-04T15:27:53;29.60;99.90
5554;DHT22;2800;49.528;8.666;2023-06-04T15:30:18;29.50;99.90
5554;DHT22;2800;49.528;8.666;2023-06-04T15:32:46;29.40;99.90
5554;DHT22;2800;49.528;8.666;2023-06-04T15:35:11;29.30;99.90
5554;DHT22;2800;49.528;8.666;2023-06-04T15:37:37;29.20;99.90
5554;DHT22;2800;49.528;8.666;2023-06-04T15:40:03;29.20;99.90
5554;DHT22;2800;49.528;8.666;2023-06-04T15:42:31;29.00;99.90
5554;DHT22;2800;49.528;8.666;2023-06-04T15:44:57;28.90;99.90
5554;DHT22;2800;49.528;8.666;2023-06-04T15:47:22;29.00;99.90
5554;DHT22;2800;49.528;8.666;2023-06-04T15:49:48;28.80;99.90
5554;DHT22;2800;49.528;8.666;2023-06-04T15:52:14;28.40;99.90
5554;DHT22;2800;49.528;8.666;2023-06-04T15:54:39;28.40;99.90
5554;DHT22;2800;49.528;8.666;2023-06-04T15:57:05;28.20;99.90
5554;DHT22;2800;49.528;8.666;2023-06-04T15:59:31;28.20;99.90
5554;DHT22;2800;49.528;8.666;2023-06-04T16:01:57;28.10;99.90
5554;DHT22;2800;49.528;8.666;2023-06-04T16:04:22;28.20;99.90
5554;DHT22;2800;49.528;8.666;2023-06-04T16:06:48;28.20;99.90
5554;DHT22;2800;49.528;8.666;2023-06-04T16:09:13;28.10;99.90